Time;durP1;ratioP1;P1;durP2;ratioP2;P2;SDS_P1;SDS_P2;PMS_P1;PMS_P2;Temp;Humidity;BMP_temperature;BMP_pressure;BME280_temperature;BME280_humidity;BME280_pressure;Samples;Min_cycle;Max_cycle;Signal;HPM_P1;HPM_P2
2021/08/27 00:01:46;;;;;;;2.63;1.63;;;13.00;99.90;;;;;;5103772;28;20712;-48
2021/08/27 00:04:13;;;;;;;1.93;1.30;;;13.00;99.90;;;;;;5105962;28;20193;-53
2021/08/27 00:06:39;;;;;;;1.57;1.00;;;12.90;99.90;;;;;;5112183;27;20588;-48
2021/08/27 00:09:06;;;;;;;2.90;1.37;;;12.90;99.90;;;;;;5101921;27;20921;-48
2021/08/27 00:11:34;;;;;;;2.37;1.30;;;12.90;99.90;;;;;;5103180;27;20209;-50
2021/08/27 00:14:01;;;;;;;2.07;1.20;;;12.90;99.90;;;;;;5123744;27;20192;-49
2021/08/27 00:16:28;;;;;;;5.00;1.60;;;12.80;99.90;;;;;;5127162;27;20196;-53
2021/08/27 00:18:54;;;;;;;4.70;1.47;;;12.80;99.90;;;;;;5114587;27;20793;-48
2021/08/27 00:21:21;;;;;;;1.63;1.23;;;12.80;99.90;;;;;;5129148;27;20224;-51
2021/08/27 00:23:47;;;;;;;2.77;1.60;;;12.70;99.90;;;;;;5115195;27;20212;-45
2021/08/27 00:26:14;;;;;;;2.37;1.60;;;12.70;99.90;;;;;;5111588;27;20193;-50
2021/08/27 00:28:42;;;;;;;3.00;1.30;;;12.70;99.90;;;;;;5118880;27;20569;-46
2021/08/27 00:31:08;;;;;;;3.20;1.50;;;12.70;99.90;;;;;;5124842;27;20219;-49
2021/08/27 00:33:35;;;;;;;2.87;2.00;;;12.60;99.90;;;;;;5125959;27;20192;-50
2021/08/27 00:36:02;;;;;;;3.10;1.20;;;12.60;99.90;;;;;;5118577;27;20196;-52
2021/08/27 00:38:28;;;;;;;3.57;1.60;;;12.60;99.90;;;;;;5119078;27;20209;-48
2021/08/27 00:40:55;;;;;;;1.67;1.53;;;12.60;99.90;;;;;;5114037;27;20209;-50
2021/08/27 00:43:22;;;;;;;4.57;1.70;;;12.60;99.90;;;;;;5111571;27;20212;-51
2021/08/27 00:45:50;;;;;;;4.60;1.70;;;12.60;99.90;;;;;;5115881;27;20196;-52
2021/08/27 00:48:17;;;;;;;4.13;1.47;;;12.50;99.90;;;;;;5115880;27;20198;-48
2021/08/27 00:50:46;;;;;;;7.97;1.50;;;12.50;99.90;;;;;;5132650;27;20193;-50
2021/08/27 00:53:13;;;;;;;4.20;1.53;;;12.50;99.90;;;;;;5116334;27;20729;-47
2021/08/27 00:55:41;;;;;;;3.13;1.20;;;12.50;99.90;;;;;;5124312;27;20284;-46
2021/08/27 00:58:07;;;;;;;1.90;1.17;;;12.50;99.90;;;;;;5111793;27;20957;-47
2021/08/27 01:00:35;;;;;;;2.10;1.43;;;12.50;99.90;;;;;;5128964;27;20201;-47
2021/08/27 01:03:04;;;;;;;3.70;1.50;;;12.50;99.90;;;;;;5122803;27;20213;-48
2021/08/27 01:05:31;;;;;;;2.33;1.40;;;12.40;99.90;;;;;;5125882;27;20197;-51
2021/08/27 01:08:04;;;;;;;1.50;1.40;;;12.40;99.90;;;;;;5101022;27;20200;-47
2021/08/27 01:10:32;;;;;;;3.47;1.60;;;12.40;99.90;;;;;;5105144;28;20674;-47
2021/08/27 01:13:10;;;;;;;4.07;1.27;;;12.40;99.90;;;;;;5090900;27;21334;-47
2021/08/27 01:15:43;;;;;;;1.50;1.30;;;12.40;99.90;;;;;;5119705;27;20193;-49
2021/08/27 01:18:18;;;;;;;3.33;1.30;;;12.40;99.90;;;;;;5125208;27;20188;-49
2021/08/27 01:21:14;;;;;;;9.93;1.70;;;12.40;99.90;;;;;;5122398;27;20207;-49
2021/08/27 01:23:43;;;;;;;5.33;1.53;;;12.40;99.90;;;;;;5099124;27;20201;-48
2021/08/27 01:26:11;;;;;;;3.13;1.50;;;12.30;99.90;;;;;;5122315;27;20196;-48
2021/08/27 01:28:44;;;;;;;3.73;1.40;;;12.30;99.90;;;;;;5120100;27;20538;-50
2021/08/27 01:31:23;;;;;;;2.37;1.47;;;12.30;99.90;;;;;;5126806;27;20213;-46
2021/08/27 01:34:02;;;;;;;4.47;1.70;;;12.30;99.90;;;;;;5120776;27;20196;-46
2021/08/27 01:36:34;;;;;;;3.93;1.40;;;12.30;99.90;;;;;;5119579;27;20215;-47
2021/08/27 01:39:03;;;;;;;4.90;1.17;;;12.30;99.90;;;;;;5114420;27;23140;-50
2021/08/27 01:41:32;;;;;;;7.47;2.13;;;12.30;99.90;;;;;;5125106;27;20216;-48
2021/08/27 01:44:02;;;;;;;1.90;1.50;;;12.30;99.90;;;;;;5099976;27;20216;-47
2021/08/27 01:46:30;;;;;;;3.10;1.73;;;12.30;99.90;;;;;;5120332;27;20204;-47
2021/08/27 01:48:57;;;;;;;2.57;1.60;;;12.40;99.90;;;;;;5131689;27;20904;-49
2021/08/27 01:51:24;;;;;;;3.20;1.40;;;12.40;99.90;;;;;;5146208;27;20196;-47
2021/08/27 01:53:53;;;;;;;4.00;1.50;;;12.40;99.90;;;;;;5132457;27;20546;-48
2021/08/27 01:56:20;;;;;;;3.80;1.30;;;12.40;99.90;;;;;;5126918;27;20211;-48
2021/08/27 01:58:47;;;;;;;3.03;1.60;;;12.40;99.90;;;;;;5107031;27;20576;-49
2021/08/27 02:01:17;;;;;;;3.13;1.80;;;12.40;99.90;;;;;;5103718;27;20272;-47
2021/08/27 02:03:45;;;;;;;2.53;1.20;;;12.40;99.90;;;;;;5122253;27;20189;-49
2021/08/27 02:06:13;;;;;;;3.40;1.60;;;12.40;99.90;;;;;;5124140;27;20199;-47
2021/08/27 02:08:42;;;;;;;4.97;1.60;;;12.50;99.90;;;;;;5123454;27;20655;-48
2021/08/27 02:11:10;;;;;;;3.43;1.40;;;12.50;99.90;;;;;;5114799;27;20248;-47
2021/08/27 02:13:37;;;;;;;5.47;1.30;;;12.50;99.90;;;;;;5117306;27;20232;-51
2021/08/27 02:16:06;;;;;;;4.53;1.50;;;12.50;99.90;;;;;;5106775;27;20196;-47
2021/08/27 02:18:33;;;;;;;4.17;1.40;;;12.60;99.90;;;;;;5123812;27;20192;-49
2021/08/27 02:21:00;;;;;;;3.77;1.10;;;12.60;99.90;;;;;;5121222;27;20264;-48
2021/08/27 02:23:28;;;;;;;3.63;1.57;;;12.60;99.90;;;;;;5124405;27;20680;-47
2021/08/27 02:25:56;;;;;;;2.80;1.17;;;12.60;99.90;;;;;;5114821;27;20196;-48
2021/08/27 02:28:25;;;;;;;2.47;1.40;;;12.70;99.90;;;;;;5139435;27;20194;-46
2021/08/27 02:30:53;;;;;;;3.27;1.43;;;12.70;99.90;;;;;;5111936;27;20231;-47
2021/08/27 02:33:21;;;;;;;5.73;1.90;;;12.70;99.90;;;;;;5124270;27;20196;-47
2021/08/27 02:35:49;;;;;;;3.90;1.47;;;12.70;99.90;;;;;;5121286;27;20195;-49
2021/08/27 02:38:20;;;;;;;4.90;1.30;;;12.70;99.90;;;;;;5124472;27;20211;-48
2021/08/27 02:40:47;;;;;;;4.23;1.07;;;12.80;99.90;;;;;;5120602;27;20220;-49
2021/08/27 02:43:13;;;;;;;5.23;1.33;;;12.80;99.90;;;;;;5116119;27;20207;-47
2021/08/27 02:45:42;;;;;;;4.37;1.63;;;12.80;99.90;;;;;;5107757;27;20226;-50
2021/08/27 02:48:09;;;;;;;1.47;1.37;;;12.80;99.90;;;;;;5122796;27;20187;-49
2021/08/27 02:50:42;;;;;;;5.20;1.63;;;12.90;99.90;;;;;;5116441;27;20207;-50
2021/08/27 02:53:13;;;;;;;3.07;1.40;;;12.90;99.90;;;;;;5123192;27;20236;-48
2021/08/27 02:55:44;;;;;;;3.47;1.73;;;12.90;99.90;;;;;;5115089;27;20193;-48
2021/08/27 02:58:16;;;;;;;3.53;1.70;;;12.90;99.90;;;;;;5120733;27;20209;-49
2021/08/27 03:00:51;;;;;;;3.10;1.10;;;12.90;99.90;;;;;;5094403;27;20719;-51
2021/08/27 03:03:21;;;;;;;2.93;1.40;;;12.90;99.90;;;;;;5114985;27;20200;-50
2021/08/27 03:05:49;;;;;;;2.67;1.33;;;13.00;99.90;;;;;;5120509;27;20203;-47
2021/08/27 03:08:21;;;;;;;2.27;1.47;;;13.00;99.90;;;;;;5106286;27;20216;-52
2021/08/27 03:10:53;;;;;;;2.00;1.20;;;13.00;99.90;;;;;;5100250;28;20189;-49
2021/08/27 03:13:25;;;;;;;1.97;1.23;;;13.00;99.90;;;;;;5122559;28;20196;-48
2021/08/27 03:15:57;;;;;;;4.43;1.23;;;13.00;99.90;;;;;;5112963;27;20215;-51
2021/08/27 03:18:30;;;;;;;4.37;1.30;;;13.00;99.90;;;;;;5103075;27;20724;-47
2021/08/27 03:21:03;;;;;;;3.23;1.23;;;13.00;99.90;;;;;;5107985;27;20225;-49
2021/08/27 03:23:33;;;;;;;5.10;1.57;;;13.10;99.90;;;;;;5103692;28;20201;-47
2021/08/27 03:26:03;;;;;;;4.47;1.87;;;13.10;99.90;;;;;;5102514;27;20868;-51
2021/08/27 03:28:34;;;;;;;7.30;1.60;;;13.10;99.90;;;;;;5130162;27;20250;-52
2021/08/27 03:31:02;;;;;;;4.90;1.43;;;13.10;99.90;;;;;;5107297;27;20190;-47
2021/08/27 03:33:29;;;;;;;2.87;1.43;;;13.10;99.90;;;;;;5109824;27;20216;-50
2021/08/27 03:35:56;;;;;;;2.10;1.50;;;13.10;99.90;;;;;;5110544;27;20199;-47
2021/08/27 03:38:24;;;;;;;2.67;1.40;;;13.10;99.90;;;;;;5128026;27;20203;-47
2021/08/27 03:40:52;;;;;;;4.17;1.13;;;13.10;99.90;;;;;;5103719;27;20734;-48
2021/08/27 03:43:20;;;;;;;4.77;1.57;;;13.20;99.90;;;;;;5107589;28;20194;-47
2021/08/27 03:45:48;;;;;;;3.83;1.37;;;13.10;99.90;;;;;;5107138;27;20200;-49
2021/08/27 03:48:16;;;;;;;1.60;1.00;;;13.10;99.90;;;;;;5112570;27;20200;-46
2021/08/27 03:50:43;;;;;;;3.80;1.27;;;13.10;99.90;;;;;;5124591;27;20204;-49
2021/08/27 03:53:11;;;;;;;2.87;1.20;;;13.10;99.90;;;;;;5125055;27;20204;-50
2021/08/27 03:55:39;;;;;;;3.97;1.20;;;13.20;99.90;;;;;;5127255;27;20202;-52
2021/08/27 03:58:07;;;;;;;2.43;1.40;;;13.20;99.90;;;;;;5133360;27;20934;-49
2021/08/27 04:00:34;;;;;;;3.33;1.30;;;13.20;99.90;;;;;;5146449;27;20192;-48
2021/08/27 04:03:01;;;;;;;3.87;1.47;;;13.20;99.90;;;;;;5103779;27;20220;-49
2021/08/27 04:05:29;;;;;;;3.57;1.30;;;13.20;99.90;;;;;;5126932;27;20548;-47
2021/08/27 04:07:55;;;;;;;3.40;1.20;;;13.20;99.90;;;;;;5123085;27;20193;-46
2021/08/27 04:10:22;;;;;;;1.73;1.00;;;13.20;99.90;;;;;;5126683;27;20199;-47
2021/08/27 04:12:49;;;;;;;2.73;1.20;;;13.20;99.90;;;;;;5123598;27;20215;-47
2021/08/27 04:15:18;;;;;;;3.13;1.40;;;13.20;99.90;;;;;;5127223;27;20193;-49
2021/08/27 04:17:45;;;;;;;4.10;1.13;;;13.20;99.90;;;;;;5117192;27;20200;-48
2021/08/27 04:20:14;;;;;;;3.80;1.73;;;13.20;99.90;;;;;;5116887;27;20215;-47
2021/08/27 04:22:42;;;;;;;2.60;1.50;;;13.20;99.90;;;;;;5125092;27;20580;-49
2021/08/27 04:25:10;;;;;;;2.07;1.50;;;13.20;99.90;;;;;;5125387;27;20855;-48
2021/08/27 04:27:36;;;;;;;2.80;1.33;;;13.20;99.90;;;;;;5134788;27;20196;-52
2021/08/27 04:30:03;;;;;;;5.30;1.67;;;13.20;99.90;;;;;;5124545;27;20184;-47
2021/08/27 04:32:30;;;;;;;2.50;1.40;;;13.30;99.90;;;;;;5119806;27;20204;-47
2021/08/27 04:34:57;;;;;;;2.47;1.23;;;13.30;99.90;;;;;;5100984;27;20205;-47
2021/08/27 04:37:23;;;;;;;4.47;1.43;;;13.30;99.90;;;;;;5126860;27;20188;-53
2021/08/27 04:39:51;;;;;;;4.43;1.90;;;13.30;99.90;;;;;;5119338;27;20207;-48
2021/08/27 04:42:18;;;;;;;1.80;1.07;;;13.30;99.90;;;;;;5126738;27;20770;-52
2021/08/27 04:44:44;;;;;;;2.90;0.90;;;13.30;99.90;;;;;;5123770;27;20560;-49
2021/08/27 04:47:11;;;;;;;4.20;1.10;;;13.30;99.90;;;;;;5122989;27;20196;-49
2021/08/27 04:49:38;;;;;;;2.60;1.37;;;13.30;99.90;;;;;;5112399;27;20204;-48
2021/08/27 04:52:05;;;;;;;3.30;1.10;;;13.30;99.90;;;;;;5122151;27;20921;-49
2021/08/27 04:54:32;;;;;;;2.93;1.33;;;13.30;99.90;;;;;;5120616;27;20205;-52
2021/08/27 04:57:00;;;;;;;3.13;1.57;;;13.40;99.90;;;;;;5124749;27;20200;-48
2021/08/27 04:59:26;;;;;;;3.47;1.10;;;13.40;99.90;;;;;;5126245;27;20681;-50
2021/08/27 05:01:53;;;;;;;3.90;1.07;;;13.40;99.90;;;;;;5119211;27;20208;-48
2021/08/27 05:04:19;;;;;;;3.67;1.43;;;13.40;99.90;;;;;;5115354;27;20205;-47
2021/08/27 05:06:46;;;;;;;2.97;1.10;;;13.40;99.90;;;;;;5098521;27;20205;-52
2021/08/27 05:09:16;;;;;;;3.57;1.00;;;13.40;99.90;;;;;;5118714;27;20207;-50
2021/08/27 05:11:42;;;;;;;3.13;1.07;;;13.50;99.90;;;;;;5123880;27;20221;-49
2021/08/27 05:14:10;;;;;;;2.90;1.23;;;13.50;99.90;;;;;;5124588;27;20184;-46
2021/08/27 05:16:37;;;;;;;2.47;1.23;;;13.50;99.90;;;;;;5117286;27;20204;-49
2021/08/27 05:19:03;;;;;;;2.57;1.10;;;13.50;99.90;;;;;;5115984;27;20184;-50
2021/08/27 05:21:30;;;;;;;2.93;1.07;;;13.50;99.90;;;;;;5097985;27;20284;-48
2021/08/27 05:23:57;;;;;;;1.93;1.17;;;13.50;99.90;;;;;;5101401;27;20920;-50
2021/08/27 05:26:23;;;;;;;1.93;1.20;;;13.50;99.90;;;;;;5117240;27;20192;-48
2021/08/27 05:28:50;;;;;;;2.97;1.23;;;13.60;99.90;;;;;;5126298;27;20273;-50
2021/08/27 05:31:18;;;;;;;3.07;0.90;;;13.60;99.90;;;;;;5122157;27;20575;-47
2021/08/27 05:33:45;;;;;;;3.93;1.07;;;13.60;99.90;;;;;;5122048;27;20189;-51
2021/08/27 05:36:11;;;;;;;4.47;1.40;;;13.60;99.90;;;;;;5107998;27;20205;-47
2021/08/27 05:38:38;;;;;;;2.60;1.13;;;13.60;99.90;;;;;;5107562;27;20574;-52
2021/08/27 05:41:05;;;;;;;2.43;1.20;;;13.70;99.90;;;;;;5123122;27;20415;-47
2021/08/27 05:43:32;;;;;;;3.40;1.30;;;13.70;99.90;;;;;;5119455;27;20227;-49
2021/08/27 05:45:59;;;;;;;2.40;1.30;;;13.70;99.90;;;;;;5106566;27;20209;-46
2021/08/27 05:48:27;;;;;;;3.83;1.70;;;13.70;99.90;;;;;;5108150;27;20514;-52
2021/08/27 05:50:54;;;;;;;4.50;1.37;;;13.70;99.90;;;;;;5112936;27;20192;-47
2021/08/27 05:53:20;;;;;;;3.97;1.67;;;13.70;99.90;;;;;;5098068;27;20204;-51
2021/08/27 05:55:47;;;;;;;2.00;1.23;;;13.70;99.90;;;;;;5116134;27;20199;-46
2021/08/27 05:58:14;;;;;;;2.93;1.10;;;13.70;99.90;;;;;;5122696;27;20204;-51
2021/08/27 06:00:41;;;;;;;2.17;1.10;;;13.80;99.90;;;;;;5111930;27;20201;-48
2021/08/27 06:03:07;;;;;;;6.60;1.37;;;13.80;99.90;;;;;;5118074;27;20239;-47
2021/08/27 06:05:35;;;;;;;2.83;1.10;;;13.80;99.90;;;;;;5122435;27;20188;-45
2021/08/27 06:08:02;;;;;;;3.17;1.30;;;13.80;99.90;;;;;;5101164;27;20222;-51
2021/08/27 06:10:29;;;;;;;1.70;1.20;;;13.80;99.90;;;;;;5126450;27;20197;-51
2021/08/27 06:12:55;;;;;;;2.17;0.93;;;13.80;99.90;;;;;;5116136;27;20205;-52
2021/08/27 06:15:22;;;;;;;2.20;1.00;;;13.80;99.90;;;;;;5115398;27;20928;-46
2021/08/27 06:17:49;;;;;;;3.87;1.30;;;13.80;99.90;;;;;;5116372;27;20204;-52
2021/08/27 06:20:15;;;;;;;3.17;0.80;;;13.80;99.90;;;;;;5115507;27;20187;-46
2021/08/27 06:22:43;;;;;;;2.90;1.20;;;13.80;99.90;;;;;;5116563;27;20212;-46
2021/08/27 06:25:10;;;;;;;1.80;1.57;;;13.80;99.90;;;;;;5059076;27;20204;-47
2021/08/27 06:27:37;;;;;;;1.93;1.00;;;13.80;99.90;;;;;;5111686;27;20193;-48
2021/08/27 06:30:05;;;;;;;2.87;1.03;;;13.80;99.90;;;;;;5118234;27;20214;-50
2021/08/27 06:32:32;;;;;;;4.00;1.17;;;13.90;99.90;;;;;;5126085;27;20215;-47
2021/08/27 06:34:58;;;;;;;2.13;1.13;;;13.90;99.90;;;;;;5117426;27;20212;-51
2021/08/27 06:40:08;;;;;;;1.10;0.80;;;14.00;99.90;;;;;;5094400;27;20199;-49
2021/08/27 06:42:35;;;;;;;3.40;0.93;;;14.00;99.90;;;;;;5110861;27;20589;-48
2021/08/27 06:45:03;;;;;;;0.90;0.67;;;14.00;99.90;;;;;;5099347;27;20209;-47
2021/08/27 06:47:29;;;;;;;1.90;1.00;;;14.00;99.90;;;;;;5116190;28;20196;-46
2021/08/27 06:49:56;;;;;;;2.03;0.90;;;14.00;99.90;;;;;;5118547;27;20218;-49
2021/08/27 06:52:22;;;;;;;4.33;0.90;;;14.10;99.90;;;;;;5116125;27;20220;-46
2021/08/27 06:54:49;;;;;;;1.80;1.20;;;14.10;99.90;;;;;;5109318;27;20201;-50
2021/08/27 06:57:17;;;;;;;2.13;0.93;;;14.10;99.90;;;;;;5101586;27;20566;-46
2021/08/27 06:59:43;;;;;;;2.57;1.23;;;14.10;99.90;;;;;;5120430;27;20654;-48
2021/08/27 07:02:10;;;;;;;2.93;1.40;;;14.20;99.90;;;;;;5106457;27;20357;-47
2021/08/27 07:04:37;;;;;;;1.87;1.10;;;14.20;99.90;;;;;;5126147;27;20193;-50
2021/08/27 07:07:04;;;;;;;2.30;1.30;;;14.20;99.90;;;;;;5121194;27;20188;-46
2021/08/27 07:09:30;;;;;;;3.00;1.50;;;14.20;99.90;;;;;;5121503;27;20666;-47
2021/08/27 07:11:57;;;;;;;4.20;1.40;;;14.20;99.90;;;;;;5102393;27;20212;-46
2021/08/27 07:14:25;;;;;;;3.60;1.20;;;14.20;99.90;;;;;;5106323;27;20913;-48
2021/08/27 07:16:51;;;;;;;4.80;1.30;;;14.20;99.90;;;;;;5114870;27;20208;-46
2021/08/27 07:19:18;;;;;;;2.53;1.23;;;14.30;99.90;;;;;;5116037;27;20609;-49
2021/08/27 07:21:45;;;;;;;1.00;0.80;;;14.30;99.90;;;;;;5121873;27;20217;-49
2021/08/27 07:24:12;;;;;;;2.70;1.27;;;14.30;99.90;;;;;;5115977;27;20213;-51
2021/08/27 07:26:38;;;;;;;3.20;1.43;;;14.30;99.90;;;;;;5100388;27;21039;-46
2021/08/27 07:29:05;;;;;;;1.80;1.30;;;14.30;99.90;;;;;;5117179;27;20199;-47
2021/08/27 07:31:33;;;;;;;2.40;1.27;;;14.40;99.90;;;;;;5113682;27;21915;-47
2021/08/27 07:34:00;;;;;;;5.53;1.67;;;14.50;99.90;;;;;;5118597;27;20201;-47
2021/08/27 07:36:26;;;;;;;3.33;1.00;;;14.50;99.90;;;;;;5124760;27;20184;-46
2021/08/27 07:38:53;;;;;;;1.43;0.97;;;14.50;99.90;;;;;;5137691;27;20211;-49
2021/08/27 07:41:20;;;;;;;1.37;1.27;;;14.50;99.90;;;;;;5119501;27;20720;-49
2021/08/27 07:43:46;;;;;;;1.07;0.90;;;14.50;99.90;;;;;;5108413;27;20224;-49
2021/08/27 07:46:13;;;;;;;2.60;1.20;;;14.50;99.90;;;;;;5117561;27;20216;-51
2021/08/27 07:48:41;;;;;;;1.70;1.20;;;14.60;99.90;;;;;;5113456;27;20302;-46
2021/08/27 07:51:07;;;;;;;1.30;0.83;;;14.60;99.90;;;;;;5119765;27;20658;-49
2021/08/27 07:53:34;;;;;;;2.10;0.83;;;14.60;99.90;;;;;;5120770;27;20930;-47
2021/08/27 07:56:01;;;;;;;1.47;0.93;;;14.60;99.90;;;;;;5119949;27;20557;-46
2021/08/27 07:58:27;;;;;;;1.27;0.77;;;14.70;99.90;;;;;;5102948;27;22066;-48
2021/08/27 08:00:56;;;;;;;1.90;1.00;;;14.70;99.90;;;;;;5119349;27;20684;-47
2021/08/27 08:03:23;;;;;;;0.73;0.70;;;14.70;99.90;;;;;;5110408;27;20211;-47
2021/08/27 08:05:51;;;;;;;2.60;0.97;;;14.80;99.90;;;;;;5134073;27;20184;-47
2021/08/27 08:08:18;;;;;;;1.97;0.80;;;14.80;99.90;;;;;;5130662;27;20651;-48
2021/08/27 08:10:45;;;;;;;0.80;0.80;;;14.90;99.90;;;;;;5131175;27;20649;-46
2021/08/27 08:13:11;;;;;;;1.43;0.90;;;15.00;99.90;;;;;;5106987;27;20209;-50
2021/08/27 08:15:38;;;;;;;6.13;1.20;;;15.00;99.90;;;;;;5103837;27;21080;-49
2021/08/27 08:18:05;;;;;;;3.80;1.00;;;15.00;99.90;;;;;;5110590;27;20205;-49
2021/08/27 08:20:31;;;;;;;1.00;0.90;;;15.10;99.90;;;;;;5105666;27;20209;-48
2021/08/27 08:22:59;;;;;;;4.37;1.10;;;15.20;99.90;;;;;;5122171;27;20793;-48
2021/08/27 08:25:26;;;;;;;3.17;1.07;;;15.30;99.90;;;;;;5113518;27;20190;-49
2021/08/27 08:27:53;;;;;;;2.13;1.00;;;15.30;99.90;;;;;;5132483;27;20563;-49
2021/08/27 08:30:19;;;;;;;1.70;0.90;;;15.30;99.90;;;;;;5094139;27;20211;-47
2021/08/27 08:32:47;;;;;;;1.33;0.80;;;15.30;99.90;;;;;;5125240;27;20587;-50
2021/08/27 08:35:13;;;;;;;2.30;0.80;;;15.30;99.90;;;;;;5106703;27;20228;-49
2021/08/27 08:37:40;;;;;;;1.97;0.73;;;15.40;99.90;;;;;;5110695;27;20221;-46
2021/08/27 08:40:10;;;;;;;3.70;0.83;;;15.50;99.90;;;;;;5111631;27;20216;-49
2021/08/27 08:42:37;;;;;;;3.50;1.07;;;15.60;99.90;;;;;;5118845;27;20675;-50
2021/08/27 08:45:05;;;;;;;3.00;0.90;;;15.70;99.90;;;;;;5102582;27;20711;-51
2021/08/27 08:47:36;;;;;;;2.03;0.93;;;15.80;99.90;;;;;;5112788;27;20197;-46
2021/08/27 08:50:03;;;;;;;1.20;0.77;;;15.90;99.90;;;;;;5112596;27;20193;-49
2021/08/27 08:52:31;;;;;;;0.80;0.80;;;16.00;99.90;;;;;;5116247;27;20297;-47
2021/08/27 08:54:58;;;;;;;1.37;0.50;;;16.10;99.90;;;;;;5115122;27;20207;-47
2021/08/27 08:57:26;;;;;;;0.73;0.73;;;16.20;99.90;;;;;;5117389;27;20199;-47
2021/08/27 08:59:53;;;;;;;0.90;0.50;;;16.20;99.90;;;;;;5109388;27;20581;-51
2021/08/27 09:02:21;;;;;;;0.60;0.60;;;16.20;99.90;;;;;;5111918;27;20235;-47
2021/08/27 09:04:47;;;;;;;0.73;0.63;;;16.20;99.90;;;;;;5120230;27;20220;-46
2021/08/27 09:07:15;;;;;;;1.63;0.70;;;16.30;99.90;;;;;;5107310;27;20234;-49
2021/08/27 09:09:43;;;;;;;1.87;0.63;;;16.30;99.90;;;;;;5117374;27;20197;-46
2021/08/27 09:12:19;;;;;;;0.87;0.60;;;16.30;99.90;;;;;;5114613;27;20228;-49
2021/08/27 09:15:01;;;;;;;0.83;0.60;;;16.40;99.90;;;;;;5114667;27;20465;-48
2021/08/27 09:17:29;;;;;;;0.43;0.40;;;16.40;99.90;;;;;;5111343;27;20291;-48
2021/08/27 09:19:56;;;;;;;6.27;0.90;;;16.40;99.90;;;;;;5118573;27;20193;-52
2021/08/27 09:22:23;;;;;;;0.93;0.40;;;16.30;99.90;;;;;;5107899;27;20236;-48
2021/08/27 09:25:07;;;;;;;0.90;0.90;;;16.30;99.90;;;;;;5116207;27;20229;-47
2021/08/27 09:27:35;;;;;;;0.67;0.50;;;16.20;99.90;;;;;;5115363;27;20723;-47
2021/08/27 09:30:09;;;;;;;0.40;0.40;;;16.20;99.90;;;;;;5114450;27;20201;-50
2021/08/27 09:32:37;;;;;;;0.53;0.50;;;16.30;99.90;;;;;;5109689;27;20223;-48
2021/08/27 09:35:10;;;;;;;1.27;0.80;;;16.40;99.90;;;;;;5110126;27;20204;-52
2021/08/27 09:37:43;;;;;;;0.70;0.70;;;16.60;99.90;;;;;;5122207;27;20188;-49
2021/08/27 09:40:12;;;;;;;1.37;0.87;;;16.70;99.90;;;;;;5111697;27;20932;-47
2021/08/27 09:42:40;;;;;;;1.03;0.60;;;16.90;99.90;;;;;;5118735;27;20573;-46
2021/08/27 09:45:10;;;;;;;0.50;0.50;;;17.10;99.90;;;;;;5115044;27;20209;-49
2021/08/27 09:47:37;;;;;;;1.97;0.50;;;17.20;99.90;;;;;;5103143;27;20215;-47
2021/08/27 09:50:24;;;;;;;1.10;0.70;;;17.30;99.90;;;;;;5112119;27;20198;-51
2021/08/27 09:52:59;;;;;;;0.97;0.50;;;17.20;99.90;;;;;;5117089;27;20216;-47
2021/08/27 09:55:28;;;;;;;2.47;0.53;;;17.20;99.90;;;;;;5110797;27;20928;-47
2021/08/27 09:58:08;;;;;;;0.60;0.30;;;17.30;99.90;;;;;;5115583;27;20927;-50
2021/08/27 10:00:38;;;;;;;0.77;0.43;;;17.40;99.90;;;;;;5104391;27;20204;-46
2021/08/27 10:03:19;;;;;;;0.33;0.33;;;17.50;99.90;;;;;;5105365;27;20565;-49
2021/08/27 10:05:49;;;;;;;2.07;0.50;;;17.60;99.90;;;;;;5108965;27;20228;-47
2021/08/27 10:08:17;;;;;;;0.60;0.60;;;17.60;99.90;;;;;;5109844;27;20253;-50
2021/08/27 10:10:44;;;;;;;1.07;0.40;;;17.50;99.90;;;;;;5113074;27;20216;-46
2021/08/27 10:13:12;;;;;;;3.90;0.90;;;17.30;99.90;;;;;;5112134;27;20216;-49
2021/08/27 10:15:41;;;;;;;1.37;0.40;;;17.20;99.90;;;;;;5110837;27;20185;-49
2021/08/27 10:18:09;;;;;;;1.03;0.73;;;17.00;99.90;;;;;;5091698;27;20204;-52
2021/08/27 10:20:38;;;;;;;0.90;0.60;;;16.90;99.90;;;;;;5117541;27;20201;-51
2021/08/27 10:23:06;;;;;;;0.73;0.47;;;16.80;99.90;;;;;;5109388;27;20311;-50
2021/08/27 10:25:33;;;;;;;1.40;0.40;;;16.70;99.90;;;;;;5103604;27;20640;-50
2021/08/27 10:28:00;;;;;;;1.20;0.70;;;16.80;99.90;;;;;;5119602;27;20394;-50
2021/08/27 10:31:02;;;;;;;0.70;0.70;;;16.90;99.90;;;;;;5117509;27;20188;-48
2021/08/27 10:34:05;;;;;;;0.47;0.47;;;17.10;99.90;;;;;;5100318;27;20207;-47
2021/08/27 10:36:55;;;;;;;1.53;0.60;;;17.30;99.90;;;;;;5112546;27;20215;-48
2021/08/27 10:39:39;;;;;;;1.73;0.53;;;17.50;99.90;;;;;;5100854;27;20797;-47
2021/08/27 10:42:06;;;;;;;0.73;0.73;;;17.60;99.90;;;;;;5115971;27;20216;-49
2021/08/27 10:44:50;;;;;;;1.53;0.60;;;17.80;99.90;;;;;;5109882;27;20209;-50
2021/08/27 10:47:19;;;;;;;0.77;0.60;;;17.90;99.90;;;;;;5111951;28;20944;-47
2021/08/27 10:50:00;;;;;;;0.53;0.50;;;18.00;99.90;;;;;;5103537;27;20200;-46
2021/08/27 10:52:30;;;;;;;0.50;0.50;;;18.00;99.90;;;;;;5115411;27;20235;-47
2021/08/27 10:55:17;;;;;;;0.53;0.50;;;18.00;99.90;;;;;;5118128;27;20188;-51
2021/08/27 10:57:46;;;;;;;0.80;0.40;;;17.90;99.90;;;;;;5123746;27;20192;-50
2021/08/27 11:00:13;;;;;;;0.40;0.40;;;17.80;99.90;;;;;;5103521;28;20211;-46
2021/08/27 11:02:55;;;;;;;1.47;0.50;;;17.70;99.90;;;;;;5114027;28;20210;-51
2021/08/27 11:05:41;;;;;;;0.53;0.53;;;17.50;99.90;;;;;;5105328;27;20213;-47
2021/08/27 11:08:10;;;;;;;1.33;0.50;;;17.50;99.90;;;;;;5098116;27;20209;-50
2021/08/27 11:10:38;;;;;;;2.57;0.50;;;17.50;99.90;;;;;;5103035;27;20220;-47
2021/08/27 11:13:11;;;;;;;2.37;0.70;;;17.50;99.90;;;;;;5114336;27;20224;-47
2021/08/27 11:15:39;;;;;;;0.60;0.60;;;17.60;99.90;;;;;;5106544;27;20200;-48
2021/08/27 11:18:12;;;;;;;1.60;0.70;;;17.80;99.90;;;;;;5097366;27;20204;-49
2021/08/27 11:20:39;;;;;;;1.47;0.63;;;17.90;99.90;;;;;;5112361;27;20208;-48
2021/08/27 11:23:05;;;;;;;1.60;0.80;;;17.80;99.90;;;;;;5103303;27;20231;-51
2021/08/27 11:25:33;;;;;;;0.87;0.40;;;17.80;99.90;;;;;;5112535;27;20216;-48
2021/08/27 11:28:14;;;;;;;0.50;0.50;;;17.80;99.90;;;;;;5119087;27;20579;-50
2021/08/27 11:30:43;;;;;;;0.60;0.53;;;18.00;99.90;;;;;;5123138;27;20192;-49
2021/08/27 11:33:47;;;;;;;0.97;0.50;;;18.10;99.90;;;;;;5105686;28;20216;-47
2021/08/27 11:36:18;;;;;;;2.07;0.53;;;18.10;99.90;;;;;;5103463;27;20196;-51
2021/08/27 11:38:50;;;;;;;2.53;0.97;;;18.20;99.90;;;;;;5113300;27;20235;-47
2021/08/27 11:41:17;;;;;;;2.00;0.50;;;18.20;99.90;;;;;;5106532;27;20217;-48
2021/08/27 11:43:46;;;;;;;2.30;0.60;;;18.30;99.90;;;;;;5111567;27;20224;-47
2021/08/27 11:46:18;;;;;;;1.50;0.80;;;18.20;99.90;;;;;;5107308;27;20875;-47
2021/08/27 11:48:50;;;;;;;0.50;0.50;;;18.10;99.90;;;;;;5115659;27;20662;-48
2021/08/27 11:51:24;;;;;;;0.73;0.60;;;18.00;99.90;;;;;;5099421;27;20784;-49
2021/08/27 11:53:50;;;;;;;1.80;0.47;;;17.80;99.90;;;;;;5116277;27;20568;-47
2021/08/27 11:56:22;;;;;;;1.37;0.73;;;17.80;99.90;;;;;;5110064;27;20216;-49
2021/08/27 11:58:49;;;;;;;0.50;0.40;;;17.90;99.90;;;;;;5114799;27;20208;-50
2021/08/27 12:01:27;;;;;;;0.53;0.40;;;17.90;99.90;;;;;;5113012;27;20216;-50
2021/08/27 12:03:54;;;;;;;0.57;0.40;;;18.00;99.90;;;;;;5114404;27;20570;-49
2021/08/27 12:06:23;;;;;;;0.60;0.60;;;18.00;99.90;;;;;;5103331;27;20231;-47
2021/08/27 12:08:50;;;;;;;0.73;0.30;;;18.00;99.90;;;;;;5118213;27;20201;-47
2021/08/27 12:11:28;;;;;;;1.60;0.70;;;18.10;99.90;;;;;;5107235;27;20221;-47
2021/08/27 12:13:54;;;;;;;3.67;0.53;;;18.10;99.90;;;;;;5129658;27;20189;-49
2021/08/27 12:16:21;;;;;;;1.07;0.50;;;18.00;99.90;;;;;;5127786;27;20200;-46
2021/08/27 12:18:50;;;;;;;2.43;0.33;;;18.00;99.90;;;;;;5116004;27;20564;-51
2021/08/27 12:21:20;;;;;;;0.30;0.30;;;18.00;99.90;;;;;;5111288;27;20221;-50
2021/08/27 12:23:59;;;;;;;0.30;0.30;;;17.90;99.90;;;;;;5105538;27;22523;-49
2021/08/27 12:26:28;;;;;;;0.50;0.40;;;17.90;99.90;;;;;;5110940;27;20197;-53
2021/08/27 12:28:56;;;;;;;1.07;0.23;;;17.80;99.90;;;;;;5121160;27;20295;-52
2021/08/27 12:31:22;;;;;;;0.40;0.40;;;17.80;99.90;;;;;;5113543;27;20216;-46
2021/08/27 12:33:50;;;;;;;0.30;0.30;;;17.70;99.90;;;;;;5114676;27;20197;-47
2021/08/27 12:36:17;;;;;;;0.90;0.30;;;17.80;99.90;;;;;;5101967;27;20540;-50
2021/08/27 12:38:44;;;;;;;0.93;0.30;;;18.00;99.90;;;;;;5112099;27;20208;-46
2021/08/27 12:41:17;;;;;;;1.47;0.60;;;18.40;99.90;;;;;;5107290;27;23043;-48
2021/08/27 12:43:44;;;;;;;0.20;0.20;;;18.50;99.90;;;;;;5114843;27;20203;-51
2021/08/27 12:46:26;;;;;;;0.20;0.20;;;18.60;99.90;;;;;;5125853;27;20191;-46
2021/08/27 12:49:11;;;;;;;0.20;0.20;;;18.50;99.90;;;;;;5116645;27;20200;-49
2021/08/27 12:51:40;;;;;;;0.53;0.30;;;18.40;99.90;;;;;;5121221;27;20804;-50
2021/08/27 12:54:07;;;;;;;0.30;0.30;;;18.20;99.90;;;;;;5105735;27;20211;-48
2021/08/27 12:56:35;;;;;;;0.87;0.30;;;18.10;99.90;;;;;;5115253;27;20193;-48
2021/08/27 12:59:16;;;;;;;0.37;0.30;;;18.10;99.90;;;;;;5100283;27;20189;-48
2021/08/27 13:01:43;;;;;;;0.90;0.20;;;18.10;99.90;;;;;;5111570;27;20819;-50